Terminal Aerodrome Forecast
Issued by NWS

Home | Current Version | Previous Version | Text Only | Print | Product List | Glossary Off
Versions: 1 2 3 4 5 6 7 8 9 10 11 12 13 14 15 16 17 18 19 20

000
FTUS43 KABR 242326
TAFPIR
TAF
KPIR 242326Z 2500/2524 07008KT P6SM OVC010
      TEMPO 2500/2504 5SM BR OVC007
     FM250400 03006KT 4SM BR OVC005
     FM250800 02005KT 1SM BR OVC002
     FM251500 05006KT P6SM OVC015=

USA.gov is the U.S. government's official web portal to all federal, state and local government web resources and services.